VVY YSBK-YSSY
Flight info
| Callsign | VVY |
|---|---|
| Flight time | 0h -1m |
| Altitude | 1000 |
| Route | HBB DCT DHH DCT REDF DCT ERSK DCT APST |
| Aircraft | R66/L-SFG/C |
Departure
| Time | 2026-05-07 07:16 |
|---|---|
| Airport | Sydney Bankstown Airport (YSBK) |
Arrival
| Time | 2026-05-07 07:15 |
|---|---|
| Airport | Sydney Kingsford Smith International Airport (YSSY) |
| Time | Latitude | Longitude | Altitude | Speed | Heading |
|---|---|---|---|---|---|
| 2026-05-07 07:14 | -33.84704 | 151.21089 | 1046 ft | 55 kts | 210° |
| 2026-05-07 07:15 | -33.84836 | 151.21195 | 741 ft | 44 kts | 136° |
| 2026-05-07 07:15 | -33.84953 | 151.21342 | 1024 ft | 18 kts | 239° |
| 2026-05-07 07:15 | -33.85042 | 151.21112 | 1127 ft | 42 kts | 251° |
| 2026-05-07 07:15 | -33.85200 | 151.20771 | 1079 ft | 48 kts | 235° |
| 2026-05-07 07:16 | -33.85480 | 151.20510 | 1023 ft | 53 kts | 213° |
| 2026-05-07 07:16 | -33.85788 | 151.20342 | 1024 ft | 44 kts | 231° |
| 2026-05-07 07:16 | -33.85981 | 151.20051 | 1031 ft | 44 kts | 241° |
| 2026-05-07 07:16 | -33.86227 | 151.19847 | 1027 ft | 59 kts | 194° |
| 2026-05-07 07:17 | -33.86624 | 151.20119 | 1033 ft | 67 kts | 172° |
| 2026-05-07 07:17 | -33.87017 | 151.20394 | 1031 ft | 65 kts | 176° |
| 2026-05-07 07:17 | -33.87424 | 151.20638 | 1029 ft | 65 kts | 179° |
| 2026-05-07 07:17 | -33.87835 | 151.20854 | 1027 ft | 61 kts | 185° |
| 2026-05-07 07:18 | -33.88183 | 151.20848 | 1027 ft | 44 kts | 219° |
| 2026-05-07 07:18 | -33.88444 | 151.20713 | 1032 ft | 39 kts | 225° |
| 2026-05-07 07:18 | -33.88667 | 151.20531 | 1028 ft | 39 kts | 229° |
| 2026-05-07 07:18 | -33.88883 | 151.20341 | 1026 ft | 38 kts | 229° |
| 2026-05-07 07:19 | -33.89105 | 151.20151 | 1031 ft | 41 kts | 229° |
| 2026-05-07 07:19 | -33.89344 | 151.19954 | 1026 ft | 41 kts | 228° |
| 2026-05-07 07:19 | -33.89560 | 151.19774 | 1041 ft | 40 kts | 231° |
| 2026-05-07 07:19 | -33.89815 | 151.19506 | 1032 ft | 56 kts | 230° |
| 2026-05-07 07:20 | -33.90145 | 151.19183 | 1030 ft | 67 kts | 222° |
| 2026-05-07 07:20 | -33.90646 | 151.19059 | 1026 ft | 79 kts | 198° |
| 2026-05-07 07:20 | -33.91206 | 151.19115 | 1014 ft | 81 kts | 187° |
| 2026-05-07 07:20 | -33.91680 | 151.19260 | 1019 ft | 58 kts | 186° |
| 2026-05-07 07:21 | -33.91961 | 151.19407 | 1005 ft | 30 kts | 194° |
| 2026-05-07 07:21 | -33.92202 | 151.19559 | 890 ft | 41 kts | 193° |
| 2026-05-07 07:21 | -33.92447 | 151.19463 | 826 ft | 40 kts | 234° |
| 2026-05-07 07:21 | -33.92610 | 151.19185 | 856 ft | 46 kts | 241° |
| 2026-05-07 07:22 | -33.92825 | 151.18847 | 930 ft | 54 kts | 231° |
| 2026-05-07 07:22 | -33.93155 | 151.18633 | 942 ft | 53 kts | 187° |
| 2026-05-07 07:22 | -33.93155 | 151.18942 | 878 ft | 27 kts | 331° |
| 2026-05-07 07:22 | -33.93030 | 151.18987 | 792 ft | 16 kts | 278° |
| 2026-05-07 07:23 | -33.93018 | 151.18882 | 883 ft | 23 kts | 254° |
| 2026-05-07 07:23 | -33.93061 | 151.18705 | 1067 ft | 11 kts | 254° |